createdAt,value
2022-10-28T00:01:16.829Z,14.89
2022-10-28T00:03:50.954Z,14.89
2022-10-28T00:06:21.238Z,14.76
2022-10-28T00:08:48.977Z,14.79
2022-10-28T00:11:22.736Z,14.84
2022-10-28T00:13:50.870Z,14.73
2022-10-28T00:16:28.320Z,14.85
2022-10-28T00:18:55.985Z,14.80
2022-10-28T00:21:32.397Z,14.83
2022-10-28T00:23:59.568Z,14.75
2022-10-28T00:26:32.019Z,14.84
2022-10-28T00:29:06.627Z,14.79
2022-10-28T00:31:35.354Z,14.73
2022-10-28T00:34:05.991Z,14.76
2022-10-28T00:36:37.072Z,14.74
2022-10-28T00:39:11.599Z,14.69
2022-10-28T00:41:42.190Z,14.64
2022-10-28T00:44:59.090Z,14.75
2022-10-28T00:47:43.927Z,14.76
2022-10-28T00:50:51.826Z,14.72
2022-10-28T00:53:27.046Z,14.71
2022-10-28T00:55:55.573Z,14.63
2022-10-28T00:58:24.951Z,14.66
2022-10-28T01:00:51.743Z,14.62
2022-10-28T01:03:18.902Z,14.55
2022-10-28T01:05:48.658Z,14.58
2022-10-28T01:08:16.362Z,14.56
2022-10-28T01:11:11.267Z,14.58
2022-10-28T01:14:30.957Z,14.57
2022-10-28T01:17:41.929Z,14.49
2022-10-28T01:20:17.519Z,14.50
2022-10-28T01:22:55.587Z,14.42
2022-10-28T01:25:44.231Z,14.44
2022-10-28T01:28:49.526Z,14.31
2022-10-28T01:31:44.322Z,14.42
2022-10-28T01:34:37.022Z,14.44
2022-10-28T01:37:49.255Z,14.41
2022-10-28T01:40:41.639Z,14.35
2022-10-28T01:43:16.757Z,14.36
2022-10-28T01:45:58.635Z,14.40
2022-10-28T01:48:52.100Z,14.37
2022-10-28T01:51:35.412Z,14.35
2022-10-28T01:54:07.062Z,14.33
2022-10-28T01:56:40.656Z,14.34
2022-10-28T01:59:17.794Z,14.35
2022-10-28T02:01:44.869Z,14.35
2022-10-28T02:04:11.860Z,14.30
2022-10-28T02:06:41.115Z,14.35
2022-10-28T02:09:13.583Z,14.37
2022-10-28T02:11:54.104Z,14.30
2022-10-28T02:14:32.942Z,14.30
2022-10-28T02:17:03.447Z,14.17
2022-10-28T02:19:45.071Z,14.22
2022-10-28T02:22:25.126Z,14.23
2022-10-28T02:25:07.240Z,14.24
2022-10-28T02:27:54.034Z,14.20
2022-10-28T02:30:27.621Z,14.05
2022-10-28T02:33:00.200Z,14.16
2022-10-28T02:36:04.724Z,14.18
2022-10-28T02:38:47.986Z,14.14
2022-10-28T02:41:23.577Z,14.20
2022-10-28T02:43:56.062Z,14.21
2022-10-28T02:46:27.067Z,14.22
2022-10-28T02:48:57.522Z,14.16
2022-10-28T02:51:32.182Z,14.11
2022-10-28T02:54:17.726Z,14.10
2022-10-28T02:56:58.471Z,14.08
2022-10-28T02:59:25.898Z,14.13
2022-10-28T03:01:53.024Z,14.10
2022-10-28T03:04:19.871Z,14.13
2022-10-28T03:06:46.670Z,14.10
2022-10-28T03:09:13.609Z,14.09
2022-10-28T03:11:40.407Z,14.10
2022-10-28T03:14:09.582Z,14.13
2022-10-28T03:16:38.751Z,14.11
2022-10-28T03:19:05.943Z,14.08
2022-10-28T03:21:32.833Z,14.07
2022-10-28T03:23:59.646Z,14.07
2022-10-28T03:26:26.458Z,14.09
2022-10-28T03:28:53.337Z,14.04
2022-10-28T03:31:20.116Z,13.93
2022-10-28T03:33:46.939Z,14.04
2022-10-28T03:36:13.789Z,14.00
2022-10-28T03:38:40.571Z,13.94
2022-10-28T03:41:07.456Z,13.97
2022-10-28T03:43:34.220Z,13.92
2022-10-28T03:46:01.019Z,13.99
2022-10-28T03:48:27.865Z,13.92
2022-10-28T03:50:55.413Z,13.93
2022-10-28T03:53:26.259Z,13.82
2022-10-28T03:55:57.707Z,13.92
2022-10-28T03:58:25.330Z,13.87
2022-10-28T04:00:53.848Z,13.87
2022-10-28T04:03:22.537Z,13.90
2022-10-28T04:05:49.415Z,13.91
2022-10-28T04:08:21.038Z,13.95
2022-10-28T04:10:48.832Z,13.93
2022-10-28T04:13:16.767Z,13.93
2022-10-28T04:15:43.679Z,13.90
2022-10-28T04:18:10.778Z,13.91
2022-10-28T04:20:37.767Z,13.89
2022-10-28T04:23:04.731Z,13.82
2022-10-28T04:25:31.786Z,13.89
2022-10-28T04:27:58.642Z,13.89
2022-10-28T04:30:25.643Z,13.91
2022-10-28T04:32:52.643Z,13.90
2022-10-28T04:35:19.421Z,13.86
2022-10-28T04:37:46.195Z,13.81
2022-10-28T04:40:13.196Z,13.86
2022-10-28T04:42:40.042Z,13.87
2022-10-28T04:45:08.014Z,13.91
2022-10-28T04:47:34.904Z,13.86
2022-10-28T04:50:02.134Z,13.89
2022-10-28T04:52:28.899Z,13.87
2022-10-28T04:54:55.666Z,13.85
2022-10-28T04:57:22.484Z,13.87
2022-10-28T04:59:49.330Z,13.91
2022-10-28T05:02:16.213Z,13.84
2022-10-28T05:04:43.030Z,13.95
2022-10-28T05:07:09.888Z,13.98
2022-10-28T05:09:36.667Z,13.94
2022-10-28T05:12:03.563Z,13.99
2022-10-28T05:14:30.380Z,14.00
2022-10-28T05:16:57.142Z,14.02
2022-10-28T05:19:23.935Z,14.01
2022-10-28T05:21:50.693Z,14.01
2022-10-28T05:24:17.708Z,13.86
2022-10-28T05:26:44.571Z,14.02
2022-10-28T05:29:11.387Z,14.00
2022-10-28T05:31:38.248Z,14.06
2022-10-28T05:34:05.103Z,14.00
2022-10-28T05:36:31.895Z,14.03
2022-10-28T05:38:58.792Z,14.08
2022-10-28T05:41:25.572Z,14.04
2022-10-28T05:43:53.197Z,14.00
2022-10-28T05:46:22.228Z,14.06
2022-10-28T05:48:49.497Z,14.10
2022-10-28T05:51:16.359Z,14.09
2022-10-28T05:53:44.264Z,14.07
2022-10-28T05:56:11.492Z,14.14
2022-10-28T05:58:38.435Z,14.07
2022-10-28T06:01:08.970Z,14.01
2022-10-28T06:03:35.897Z,14.09
2022-10-28T06:06:03.010Z,13.94
2022-10-28T06:08:30.591Z,14.05
2022-10-28T06:10:56.020Z,13.89
2022-10-28T06:13:23.056Z,14.05
2022-10-28T06:15:51.841Z,13.94
2022-10-28T06:18:19.204Z,14.04
2022-10-28T06:20:54.185Z,13.99
2022-10-28T06:23:22.225Z,14.04
2022-10-28T06:25:49.452Z,14.05
2022-10-28T06:28:16.325Z,14.01
2022-10-28T06:30:43.153Z,14.09
2022-10-28T06:33:10.038Z,14.10
2022-10-28T06:35:36.933Z,14.14
2022-10-28T06:38:08.486Z,14.10
2022-10-28T06:40:36.333Z,14.19
2022-10-28T06:43:05.970Z,14.16
2022-10-28T06:45:34.180Z,14.15
2022-10-28T06:48:05.588Z,14.16
2022-10-28T06:50:34.503Z,14.16
2022-10-28T06:53:01.826Z,14.15
2022-10-28T06:55:29.220Z,14.07
2022-10-28T06:58:00.882Z,14.13
2022-10-28T07:03:01.887Z,14.18
2022-10-28T07:05:28.948Z,14.15
2022-10-28T07:07:56.109Z,14.10
2022-10-28T07:10:23.265Z,14.13
2022-10-28T07:12:52.645Z,14.20
2022-10-28T07:15:19.551Z,14.19
2022-10-28T07:17:56.050Z,14.21
2022-10-28T07:20:26.383Z,14.09
2022-10-28T07:22:58.059Z,14.22
2022-10-28T07:25:25.646Z,14.26
2022-10-28T07:27:52.700Z,14.20
2022-10-28T07:30:20.007Z,14.28
2022-10-28T07:32:46.964Z,14.17
2022-10-28T07:35:13.837Z,14.30
2022-10-28T07:37:40.705Z,14.35
2022-10-28T07:40:08.479Z,14.40
2022-10-28T07:42:35.288Z,14.32
2022-10-28T07:45:02.096Z,14.43
2022-10-28T07:47:28.853Z,14.41
2022-10-28T07:49:55.718Z,14.49
2022-10-28T07:52:23.043Z,14.50
2022-10-28T07:54:51.918Z,14.51
2022-10-28T07:57:19.183Z,14.47
2022-10-28T07:59:46.019Z,14.48
2022-10-28T08:02:19.109Z,14.57
2022-10-28T08:04:45.928Z,14.60
2022-10-28T08:07:14.225Z,14.63
2022-10-28T08:09:41.242Z,14.64
2022-10-28T08:12:09.173Z,14.60
2022-10-28T08:14:36.003Z,14.65
2022-10-28T08:17:02.794Z,14.66
2022-10-28T08:19:29.629Z,14.69
2022-10-28T08:21:57.034Z,14.70
2022-10-28T08:24:24.148Z,14.68
2022-10-28T08:26:51.287Z,14.73
2022-10-28T08:29:18.124Z,14.71
2022-10-28T08:31:44.983Z,14.66
2022-10-28T08:34:11.858Z,14.81
2022-10-28T08:36:38.687Z,14.82
2022-10-28T08:39:05.852Z,14.85
2022-10-28T08:41:49.596Z,14.82
2022-10-28T08:44:43.558Z,14.88
2022-10-28T08:47:37.639Z,14.90
2022-10-28T08:50:16.144Z,14.89
2022-10-28T08:53:04.893Z,14.93
2022-10-28T08:55:38.645Z,14.90
2022-10-28T08:58:18.458Z,14.97
2022-10-28T09:00:51.112Z,14.97
2022-10-28T09:03:26.351Z,15.00
2022-10-28T09:06:03.621Z,14.97
2022-10-28T09:08:51.681Z,15.04
2022-10-28T09:11:51.943Z,14.95
2022-10-28T09:14:56.281Z,15.09
2022-10-28T09:17:52.334Z,15.11
2022-10-28T09:20:26.295Z,15.12
2022-10-28T09:23:04.693Z,15.15
2022-10-28T09:26:18.448Z,15.12
2022-10-28T09:29:30.985Z,15.19
2022-10-28T09:32:40.656Z,15.22
2022-10-28T09:35:15.706Z,15.22
2022-10-28T09:37:49.822Z,15.25
2022-10-28T09:40:25.052Z,15.25
2022-10-28T09:43:39.044Z,15.29
2022-10-28T09:46:15.368Z,15.29
2022-10-28T09:48:46.604Z,15.33
2022-10-28T09:51:44.940Z,15.35
2022-10-28T09:54:13.338Z,15.35
2022-10-28T09:56:41.006Z,15.37
2022-10-28T09:59:12.682Z,15.31
2022-10-28T10:01:43.169Z,15.45
2022-10-28T10:04:20.394Z,15.48
2022-10-28T10:06:54.662Z,15.43
2022-10-28T10:09:28.854Z,15.48
2022-10-28T10:12:11.123Z,15.54
2022-10-28T10:14:56.523Z,15.56
2022-10-28T10:17:43.378Z,15.62
2022-10-28T10:20:13.816Z,15.63
2022-10-28T10:22:43.620Z,15.67
2022-10-28T10:25:19.749Z,15.71
2022-10-28T10:28:17.083Z,15.74
2022-10-28T10:30:52.778Z,15.75
2022-10-28T10:33:25.031Z,15.72
2022-10-28T10:36:15.958Z,15.81
2022-10-28T10:38:54.754Z,15.81
2022-10-28T10:41:57.135Z,15.87
2022-10-28T10:44:35.244Z,15.90
2022-10-28T10:47:06.294Z,15.92
2022-10-28T10:49:36.922Z,15.95
2022-10-28T10:52:08.050Z,15.97
2022-10-28T10:54:37.509Z,15.99
2022-10-28T10:57:21.008Z,16.04
2022-10-28T10:59:51.835Z,16.06
2022-10-28T11:02:34.900Z,16.06
2022-10-28T11:05:09.382Z,16.12
2022-10-28T11:07:40.374Z,16.15
2022-10-28T11:10:30.118Z,16.18
2022-10-28T11:13:03.044Z,16.18
2022-10-28T11:15:32.232Z,16.26
2022-10-28T11:18:19.195Z,16.30
2022-10-28T11:21:11.074Z,16.22
2022-10-28T11:24:13.474Z,16.31
2022-10-28T11:27:13.027Z,16.36
2022-10-28T11:29:40.550Z,16.40
2022-10-28T11:32:19.512Z,16.49
2022-10-28T11:35:34.495Z,16.53
2022-10-28T11:38:22.717Z,16.57
2022-10-28T11:40:58.421Z,16.59
2022-10-28T11:43:34.493Z,16.64
2022-10-28T11:46:34.782Z,16.69
2022-10-28T11:49:39.372Z,16.72
2022-10-28T11:52:44.294Z,16.74
2022-10-28T11:55:33.485Z,16.79
2022-10-28T11:58:31.507Z,16.84
2022-10-28T12:01:00.949Z,16.89
2022-10-28T12:04:23.545Z,16.89
2022-10-28T12:07:12.356Z,17.10
2022-10-28T12:09:55.665Z,17.21
2022-10-28T12:13:01.029Z,17.21
2022-10-28T12:15:58.561Z,17.27
2022-10-28T12:18:59.887Z,17.30
2022-10-28T12:22:04.562Z,17.32
2022-10-28T12:24:35.962Z,17.34
2022-10-28T12:27:18.163Z,17.29
2022-10-28T12:29:52.231Z,17.37
2022-10-28T12:32:26.466Z,17.39
2022-10-28T12:35:15.874Z,17.43
2022-10-28T12:38:16.031Z,17.48
2022-10-28T12:40:57.051Z,17.52
2022-10-28T12:43:32.820Z,17.53
2022-10-28T12:46:00.326Z,17.60
2022-10-28T12:48:48.867Z,17.63
2022-10-28T12:51:23.998Z,17.78
2022-10-28T12:54:03.526Z,17.85
2022-10-28T12:56:52.761Z,17.86
2022-10-28T12:59:33.234Z,17.94
2022-10-28T13:02:02.387Z,18.01
2022-10-28T13:04:29.536Z,18.06
2022-10-28T13:07:27.137Z,18.19
2022-10-28T13:10:12.210Z,18.26
2022-10-28T13:13:13.404Z,18.31
2022-10-28T13:16:21.329Z,18.40
2022-10-28T13:19:25.280Z,18.45
2022-10-28T13:22:11.544Z,18.51
2022-10-28T13:25:34.051Z,18.57
2022-10-28T13:28:01.957Z,18.50
2022-10-28T13:30:32.052Z,18.51
2022-10-28T13:33:07.407Z,18.53
2022-10-28T13:35:34.869Z,18.65
2022-10-28T13:38:02.773Z,18.67
2022-10-28T13:40:33.721Z,18.78
2022-10-28T13:43:01.474Z,18.81
2022-10-28T13:45:55.879Z,18.86
2022-10-28T13:48:28.820Z,19.10
2022-10-28T13:51:15.792Z,19.23
2022-10-28T13:53:45.471Z,19.22
2022-10-28T13:56:45.874Z,19.21
2022-10-28T13:59:12.621Z,19.24
2022-10-28T14:02:07.994Z,19.23
2022-10-28T14:04:42.493Z,19.39
2022-10-28T14:07:12.581Z,19.53
2022-10-28T14:09:41.348Z,19.54
2022-10-28T14:12:31.302Z,19.54
2022-10-28T14:15:03.595Z,19.41
2022-10-28T14:18:29.709Z,19.39
2022-10-28T14:21:00.829Z,19.47
2022-10-28T14:23:27.818Z,19.48
2022-10-28T14:25:54.638Z,19.47
2022-10-28T14:28:27.445Z,19.47
2022-10-28T14:31:11.962Z,19.45
2022-10-28T14:34:11.232Z,19.39
2022-10-28T14:37:13.116Z,19.49
2022-10-28T14:40:14.414Z,19.57
2022-10-28T14:43:26.489Z,19.51
2022-10-28T14:46:34.932Z,19.55
2022-10-28T14:49:03.708Z,19.55
2022-10-28T14:51:40.266Z,19.57
2022-10-28T14:54:14.813Z,19.63
2022-10-28T14:56:42.180Z,19.64
2022-10-28T14:59:33.567Z,19.68
2022-10-28T15:02:23.160Z,19.60
2022-10-28T15:05:18.335Z,19.57
2022-10-28T15:07:45.253Z,19.55
2022-10-28T15:10:31.826Z,19.53
2022-10-28T15:13:00.145Z,19.43
2022-10-28T15:15:34.919Z,19.46
2022-10-28T15:18:01.911Z,19.42
2022-10-28T15:20:35.569Z,19.38
2022-10-28T15:23:22.473Z,19.25
2022-10-28T15:26:12.525Z,19.39
2022-10-28T15:28:41.120Z,19.36
2022-10-28T15:31:08.710Z,19.32
2022-10-28T15:33:41.605Z,19.34
2022-10-28T15:36:20.863Z,19.33
2022-10-28T15:38:51.289Z,19.31
2022-10-28T15:41:29.929Z,19.30
2022-10-28T15:44:00.682Z,19.24
2022-10-28T15:46:28.507Z,19.24
2022-10-28T15:48:58.810Z,19.23
2022-10-28T15:51:26.650Z,19.13
2022-10-28T15:53:55.369Z,19.10
2022-10-28T15:56:26.813Z,19.12
2022-10-28T15:58:59.567Z,19.10
2022-10-28T16:01:40.684Z,19.07
2022-10-28T16:04:23.017Z,19.05
2022-10-28T16:06:55.961Z,18.91
2022-10-28T16:09:32.257Z,19.00
2022-10-28T16:12:04.851Z,18.96
2022-10-28T16:14:37.573Z,18.94
2022-10-28T16:17:26.918Z,18.82
2022-10-28T16:19:56.895Z,18.88
2022-10-28T16:22:26.644Z,18.85
2022-10-28T16:24:54.827Z,18.82
2022-10-28T16:27:30.468Z,18.81
2022-10-28T16:29:57.866Z,18.80
2022-10-28T16:32:34.027Z,18.78
2022-10-28T16:35:02.759Z,18.70
2022-10-28T16:37:32.755Z,18.69
2022-10-28T16:39:59.933Z,18.74
2022-10-28T16:42:27.332Z,18.70
2022-10-28T16:44:54.177Z,18.68
2022-10-28T16:47:25.522Z,18.66
2022-10-28T16:49:56.345Z,18.64
2022-10-28T16:52:30.129Z,18.56
2022-10-28T16:54:58.219Z,18.52
2022-10-28T16:57:25.872Z,18.54
2022-10-28T16:59:53.328Z,18.49
2022-10-28T17:02:28.961Z,18.51
2022-10-28T17:04:56.654Z,18.48
2022-10-28T17:07:23.666Z,18.46
2022-10-28T17:09:52.005Z,18.39
2022-10-28T17:12:22.562Z,18.40
2022-10-28T17:14:49.615Z,18.37
2022-10-28T17:17:16.917Z,18.36
2022-10-28T17:19:45.641Z,18.25
2022-10-28T17:22:13.593Z,18.31
2022-10-28T17:24:40.514Z,18.29
2022-10-28T17:27:07.531Z,18.27
2022-10-28T17:29:34.541Z,18.25
2022-10-28T17:32:02.342Z,18.21
2022-10-28T17:34:29.308Z,18.09
2022-10-28T17:36:56.382Z,18.11
2022-10-28T17:39:26.111Z,18.06
2022-10-28T17:41:53.701Z,18.11
2022-10-28T17:44:20.641Z,18.09
2022-10-28T17:46:51.711Z,18.07
2022-10-28T17:49:18.872Z,18.05
2022-10-28T17:51:45.713Z,18.03
2022-10-28T17:54:12.591Z,17.98
2022-10-28T17:56:41.841Z,17.96
2022-10-28T17:59:08.744Z,17.95
2022-10-28T18:01:36.366Z,17.87
2022-10-28T18:04:04.547Z,17.89
2022-10-28T18:06:31.590Z,17.88
2022-10-28T18:08:58.603Z,17.88
2022-10-28T18:11:27.278Z,17.85
2022-10-28T18:13:55.873Z,17.84
2022-10-28T18:16:27.780Z,17.81
2022-10-28T18:18:55.627Z,17.55
2022-10-28T18:21:24.346Z,17.75
2022-10-28T18:23:52.981Z,17.75
2022-10-28T18:26:20.716Z,17.73
2022-10-28T18:28:48.828Z,17.70
2022-10-28T18:31:20.140Z,17.63
2022-10-28T18:33:47.619Z,17.59
2022-10-28T18:36:21.140Z,17.64
2022-10-28T18:38:51.577Z,17.59
2022-10-28T18:41:24.831Z,17.59
2022-10-28T18:44:13.964Z,17.51
2022-10-28T18:46:42.461Z,17.50
2022-10-28T18:49:09.290Z,17.51
2022-10-28T18:51:36.511Z,17.50
2022-10-28T18:54:04.237Z,17.48
2022-10-28T18:56:31.174Z,17.44
2022-10-28T18:58:58.810Z,17.44
2022-10-28T19:01:28.658Z,17.40
2022-10-28T19:04:01.582Z,17.38
2022-10-28T19:06:32.670Z,17.35
2022-10-28T19:09:03.244Z,17.33
2022-10-28T19:11:32.113Z,17.30
2022-10-28T19:14:01.839Z,17.29
2022-10-28T19:16:30.742Z,17.30
2022-10-28T19:18:59.305Z,17.26
2022-10-28T19:21:27.586Z,17.25
2022-10-28T19:23:55.515Z,17.22
2022-10-28T19:26:22.974Z,17.18
2022-10-28T19:28:50.547Z,17.16
2022-10-28T19:31:23.946Z,17.08
2022-10-28T19:33:53.236Z,16.98
2022-10-28T19:36:23.261Z,17.08
2022-10-28T19:38:53.503Z,17.11
2022-10-28T19:41:26.443Z,17.10
2022-10-28T19:43:58.092Z,17.11
2022-10-28T19:46:27.646Z,17.06
2022-10-28T19:48:57.661Z,17.05
2022-10-28T19:51:30.975Z,16.92
2022-10-28T19:54:04.832Z,16.91
2022-10-28T19:56:33.184Z,17.03
2022-10-28T19:59:02.532Z,17.01
2022-10-28T20:01:33.309Z,16.97
2022-10-28T20:04:00.447Z,16.98
2022-10-28T20:06:32.636Z,16.88
2022-10-28T20:08:59.515Z,16.95
2022-10-28T20:11:31.615Z,16.95
2022-10-28T20:14:04.811Z,16.95
2022-10-28T20:16:32.986Z,16.93
2022-10-28T20:19:00.140Z,16.82
2022-10-28T20:21:30.219Z,16.92
2022-10-28T20:23:58.098Z,16.88
2022-10-28T20:26:30.835Z,16.84
2022-10-28T20:28:58.368Z,16.83
2022-10-28T20:31:31.280Z,16.82
2022-10-28T20:34:01.542Z,16.79
2022-10-28T20:36:38.272Z,16.81
2022-10-28T20:39:12.957Z,16.77
2022-10-28T20:41:41.977Z,16.72
2022-10-28T20:44:09.219Z,16.76
2022-10-28T20:46:36.679Z,16.71
2022-10-28T20:49:04.809Z,16.61
2022-10-28T20:51:32.961Z,16.61
2022-10-28T20:54:00.126Z,16.63
2022-10-28T20:56:30.641Z,16.65
2022-10-28T20:58:58.156Z,16.60
2022-10-28T21:01:28.825Z,16.60
2022-10-28T21:03:58.927Z,16.52
2022-10-28T21:06:26.692Z,16.52
2022-10-28T21:08:54.455Z,16.45
2022-10-28T21:11:23.328Z,16.40
2022-10-28T21:13:52.632Z,16.49
2022-10-28T21:16:20.532Z,16.37
2022-10-28T21:18:47.904Z,16.35
2022-10-28T21:21:14.785Z,16.34
2022-10-28T21:23:41.660Z,16.30
2022-10-28T21:26:11.085Z,16.23
2022-10-28T21:28:41.249Z,16.11
2022-10-28T21:31:18.014Z,16.20
2022-10-28T21:33:45.825Z,16.23
2022-10-28T21:36:15.966Z,16.18
2022-10-28T21:38:43.694Z,16.16
2022-10-28T21:41:17.540Z,16.02
2022-10-28T21:43:47.735Z,16.03
2022-10-28T21:46:15.828Z,16.10
2022-10-28T21:48:43.110Z,16.08
2022-10-28T21:51:14.756Z,16.06
2022-10-28T21:53:42.784Z,16.09
2022-10-28T21:56:17.046Z,16.06
2022-10-28T21:58:47.539Z,16.07
2022-10-28T22:01:23.651Z,15.97
2022-10-28T22:03:51.800Z,15.95
2022-10-28T22:06:18.663Z,15.91
2022-10-28T22:08:46.740Z,15.95
2022-10-28T22:11:17.893Z,15.90
2022-10-28T22:13:45.378Z,15.90
2022-10-28T22:16:16.161Z,15.86
2022-10-28T22:18:43.921Z,15.82
2022-10-28T22:21:14.891Z,15.82
2022-10-28T22:23:42.307Z,15.65
2022-10-28T22:26:13.508Z,15.78
2022-10-28T22:28:40.439Z,15.71
2022-10-28T22:31:10.404Z,15.64
2022-10-28T22:33:37.655Z,15.70
2022-10-28T22:36:08.365Z,15.63
2022-10-28T22:38:35.644Z,15.67
2022-10-28T22:41:21.086Z,15.60
2022-10-28T22:44:07.332Z,15.67
2022-10-28T22:46:36.817Z,15.70
2022-10-28T22:49:04.317Z,15.69
2022-10-28T22:51:31.200Z,15.69
2022-10-28T22:53:58.380Z,15.67
2022-10-28T22:56:27.009Z,15.69
2022-10-28T22:58:59.825Z,15.62
2022-10-28T23:01:28.941Z,15.58
2022-10-28T23:03:56.090Z,15.48
2022-10-28T23:06:26.797Z,15.57
2022-10-28T23:08:54.295Z,15.48
2022-10-28T23:11:22.344Z,15.52
2022-10-28T23:13:54.037Z,15.53
2022-10-28T23:16:21.981Z,15.53
2022-10-28T23:18:48.910Z,15.45
2022-10-28T23:21:25.070Z,15.41
2022-10-28T23:24:00.111Z,15.46
2022-10-28T23:26:29.296Z,15.46
2022-10-28T23:28:59.484Z,15.47
2022-10-28T23:31:26.948Z,15.49
2022-10-28T23:33:54.896Z,15.43
2022-10-28T23:36:22.083Z,15.41
2022-10-28T23:38:48.990Z,15.41
2022-10-28T23:41:18.611Z,15.25
2022-10-28T23:43:46.845Z,15.37
2022-10-28T23:46:13.676Z,15.32
2022-10-28T23:48:40.589Z,15.30
2022-10-28T23:51:07.759Z,15.31
2022-10-28T23:53:35.089Z,15.35
2022-10-28T23:56:02.005Z,15.26
2022-10-28T23:58:28.883Z,15.32
